Time,TemperatureF,DewpointF,PressureIn,WindDirection,WindDirectionDegrees,WindSpeedMPH,WindSpeedGustMPH,Humidity,HourlyPrecipIn,Conditions,Clouds,dailyrainin,SoftwareType,DateUTC
2013-01-29 00:04:00,64.1,59.0,29.75,SSE,157,5.0,18.0,83,0.00,,,0.00,weatherlink.com 1.10,2013-01-29 06:04:00,
2013-01-29 00:19:00,64.0,59.0,29.75,SSW,202,10.0,14.0,83,0.00,,,0.00,weatherlink.com 1.10,2013-01-29 06:19:00,
2013-01-29 00:34:00,63.9,59.0,29.74,South,189,7.0,15.0,84,0.00,,,0.00,weatherlink.com 1.10,2013-01-29 06:34:00,
2013-01-29 00:49:00,64.1,59.0,29.73,SSW,196,7.0,18.0,84,0.00,,,0.00,weatherlink.com 1.10,2013-01-29 06:49:00,
2013-01-29 01:04:00,64.0,59.0,29.72,SSW,197,10.0,17.0,84,0.00,,,0.00,weatherlink.com 1.10,2013-01-29 07:04:00,
2013-01-29 01:19:00,64.0,59.0,29.72,SSE,167,10.0,17.0,84,0.00,,,0.00,weatherlink.com 1.10,2013-01-29 07:19:00,
2013-01-29 01:34:00,64.1,59.0,29.71,South,184,8.0,15.0,84,0.00,,,0.00,weatherlink.com 1.10,2013-01-29 07:34:00,
2013-01-29 01:49:00,64.2,59.0,29.71,South,185,6.0,16.0,83,0.00,,,0.00,weatherlink.com 1.10,2013-01-29 07:49:00,
2013-01-29 02:04:00,64.3,59.0,29.71,South,180,10.0,17.0,84,0.00,,,0.00,weatherlink.com 1.10,2013-01-29 08:04:00,
2013-01-29 02:19:00,64.2,59.0,29.71,SW,223,9.0,17.0,83,0.00,,,0.00,weatherlink.com 1.10,2013-01-29 08:19:00,
2013-01-29 02:34:00,64.3,59.0,29.70,SSW,194,7.0,20.0,84,0.00,,,0.00,weatherlink.com 1.10,2013-01-29 08:34:00,
2013-01-29 02:49:00,64.6,59.0,29.70,South,185,14.0,18.0,83,0.00,,,0.00,weatherlink.com 1.10,2013-01-29 08:49:00,
2013-01-29 03:04:00,64.6,59.0,29.69,South,172,6.0,22.0,83,0.00,,,0.00,weatherlink.com 1.10,2013-01-29 09:04:00,
2013-01-29 03:19:00,64.5,59.0,29.69,South,187,8.0,16.0,83,0.00,,,0.00,weatherlink.com 1.10,2013-01-29 09:19:00,
2013-01-29 03:34:00,64.5,59.0,29.69,South,170,6.0,16.0,83,0.00,,,0.00,weatherlink.com 1.10,2013-01-29 09:34:00,
2013-01-29 03:49:00,64.6,59.0,29.68,SSW,205,10.0,18.0,83,0.00,,,0.00,weatherlink.com 1.10,2013-01-29 09:49:00,
2013-01-29 04:05:00,64.9,59.0,29.68,South,180,15.0,24.0,82,0.00,,,0.00,weatherlink.com 1.10,2013-01-29 10:05:00,
2013-01-29 04:20:00,64.8,59.0,29.68,SW,226,6.0,21.0,82,0.00,,,0.00,weatherlink.com 1.10,2013-01-29 10:20:00,
2013-01-29 04:35:00,64.8,59.0,29.67,South,173,11.0,19.0,82,0.00,,,0.00,weatherlink.com 1.10,2013-01-29 10:35:00,
2013-01-29 04:50:00,64.9,59.0,29.67,SW,221,8.0,19.0,82,0.00,,,0.00,weatherlink.com 1.10,2013-01-29 10:50:00,
2013-01-29 05:05:00,65.1,60.0,29.67,SSW,202,5.0,16.0,82,0.00,,,0.00,weatherlink.com 1.10,2013-01-29 11:05:00,
2013-01-29 05:20:00,65.1,59.0,29.67,SW,234,5.0,15.0,81,0.00,,,0.00,weatherlink.com 1.10,2013-01-29 11:20:00,
2013-01-29 05:35:00,65.0,59.0,29.66,South,190,4.0,22.0,82,0.00,,,0.00,weatherlink.com 1.10,2013-01-29 11:35:00,
2013-01-29 05:50:00,64.7,59.0,29.66,South,185,14.0,17.0,82,0.00,,,0.00,weatherlink.com 1.10,2013-01-29 11:50:00,
2013-01-29 06:05:00,64.4,59.0,29.65,South,180,12.0,20.0,83,0.00,,,0.00,weatherlink.com 1.10,2013-01-29 12:05:00,
2013-01-29 06:20:00,64.3,59.0,29.65,SW,219,7.0,17.0,83,0.00,,,0.00,weatherlink.com 1.10,2013-01-29 12:20:00,
2013-01-29 06:35:00,64.1,59.0,29.66,SW,225,5.0,17.0,83,0.00,,,0.00,weatherlink.com 1.10,2013-01-29 12:35:00,
2013-01-29 06:50:00,64.2,59.0,29.65,SE,145,4.0,15.0,83,0.00,,,0.00,weatherlink.com 1.10,2013-01-29 12:50:00,
2013-01-29 07:05:00,64.4,59.0,29.65,SSW,194,7.0,18.0,83,0.00,,,0.00,weatherlink.com 1.10,2013-01-29 13:05:00,
2013-01-29 07:20:00,64.3,59.0,29.64,SSW,200,4.0,17.0,83,0.00,,,0.00,weatherlink.com 1.10,2013-01-29 13:20:00,
2013-01-29 07:35:00,64.4,59.0,29.62,South,177,12.0,18.0,83,0.00,,,0.00,weatherlink.com 1.10,2013-01-29 13:35:00,
2013-01-29 07:50:00,64.2,59.0,29.62,SW,227,10.0,17.0,83,0.00,,,0.00,weatherlink.com 1.10,2013-01-29 13:50:00,
2013-01-29 08:05:00,64.3,59.0,29.63,South,188,9.0,14.0,83,0.00,,,0.00,weatherlink.com 1.10,2013-01-29 14:05:00,
2013-01-29 08:20:00,64.7,59.0,29.63,South,186,6.0,17.0,83,0.00,,,0.00,weatherlink.com 1.10,2013-01-29 14:20:00,
2013-01-29 08:35:00,65.1,60.0,29.62,SSW,207,14.0,20.0,82,0.00,,,0.00,weatherlink.com 1.10,2013-01-29 14:35:00,
2013-01-29 08:50:00,65.1,60.0,29.63,SSW,205,5.0,15.0,82,0.00,,,0.00,weatherlink.com 1.10,2013-01-29 14:50:00,
2013-01-29 09:05:00,65.2,60.0,29.63,WSW,252,7.0,15.0,82,0.00,,,0.00,weatherlink.com 1.10,2013-01-29 15:05:00,
2013-01-29 09:20:00,64.9,59.0,29.62,SSW,194,7.0,7.0,82,0.00,,,0.00,weatherlink.com 1.10,2013-01-29 15:20:00,
2013-01-29 09:35:00,65.0,59.0,29.61,SSW,202,9.0,16.0,82,0.00,,,0.00,weatherlink.com 1.10,2013-01-29 15:35:00,
2013-01-29 09:50:00,65.3,60.0,29.60,South,179,10.0,14.0,82,0.00,,,0.00,weatherlink.com 1.10,2013-01-29 15:50:00,
2013-01-29 10:05:00,65.7,60.0,29.60,WSW,237,9.0,17.0,81,0.00,,,0.00,weatherlink.com 1.10,2013-01-29 16:05:00,
2013-01-29 10:20:00,66.1,60.0,29.60,SSE,164,9.0,20.0,80,0.00,,,0.00,weatherlink.com 1.10,2013-01-29 16:20:00,
2013-01-29 10:35:00,66.5,60.0,29.59,South,182,6.0,21.0,79,0.00,,,0.00,weatherlink.com 1.10,2013-01-29 16:35:00,
2013-01-29 10:50:00,66.9,60.0,29.58,SSW,200,8.0,19.0,79,0.00,,,0.00,weatherlink.com 1.10,2013-01-29 16:50:00,
2013-01-29 11:05:00,67.1,60.0,29.57,South,187,10.0,17.0,79,0.00,,,0.00,weatherlink.com 1.10,2013-01-29 17:05:00,
2013-01-29 11:20:00,67.6,60.0,29.56,SSW,207,13.0,22.0,77,0.00,,,0.00,weatherlink.com 1.10,2013-01-29 17:20:00,
2013-01-29 11:35:00,67.7,60.0,29.54,SSW,207,12.0,23.0,77,0.00,,,0.00,weatherlink.com 1.10,2013-01-29 17:35:00,
2013-01-29 11:50:00,67.8,60.0,29.53,SSW,197,15.0,26.0,76,0.00,,,0.00,weatherlink.com 1.10,2013-01-29 17:50:00,
2013-01-29 12:06:00,67.7,60.0,29.51,SSW,193,6.0,20.0,77,0.00,,,0.00,weatherlink.com 1.10,2013-01-29 18:06:00,
2013-01-29 12:21:00,67.8,60.0,29.48,SSE,161,11.0,22.0,77,0.00,,,0.00,weatherlink.com 1.10,2013-01-29 18:21:00,
2013-01-29 12:36:00,67.8,60.0,29.47,South,187,8.0,18.0,77,0.00,,,0.00,weatherlink.com 1.10,2013-01-29 18:36:00,
2013-01-29 12:51:00,67.3,60.0,29.46,SSE,159,8.0,20.0,77,0.00,,,0.00,weatherlink.com 1.10,2013-01-29 18:51:00,
2013-01-29 13:06:00,67.0,60.0,29.43,SE,130,5.0,14.0,78,0.00,,,0.00,weatherlink.com 1.10,2013-01-29 19:06:00,
2013-01-29 13:21:00,59.5,54.0,29.47,West,277,6.0,22.0,82,0.14,,,0.14,weatherlink.com 1.10,2013-01-29 19:21:00,
2013-01-29 13:36:00,54.7,52.0,29.48,NW,317,2.0,15.0,91,0.24,,,0.24,weatherlink.com 1.10,2013-01-29 19:36:00,
2013-01-29 13:51:00,53.7,52.0,29.48,NNW,344,5.0,8.0,93,0.32,,,0.32,weatherlink.com 1.10,2013-01-29 19:51:00,
2013-01-29 14:06:00,53.4,52.0,29.47,NW,316,4.0,12.0,95,0.41,,,0.41,weatherlink.com 1.10,2013-01-29 20:06:00,
2013-01-29 14:21:00,53.4,52.0,29.50,WNW,289,2.0,14.0,96,0.39,,,0.55,weatherlink.com 1.10,2013-01-29 20:21:00,
2013-01-29 14:36:00,53.3,52.0,29.50,NNW,328,0.0,7.0,96,0.39,,,0.63,weatherlink.com 1.10,2013-01-29 20:36:00,
2013-01-29 14:51:00,53.5,52.0,29.49,NNW,334,4.0,8.0,96,0.37,,,0.69,weatherlink.com 1.10,2013-01-29 20:51:00,
2013-01-29 15:06:00,53.4,52.0,29.48,NNW,339,4.0,6.0,96,0.31,,,0.72,weatherlink.com 1.10,2013-01-29 21:06:00,
2013-01-29 15:21:00,53.2,52.0,29.49,NNW,337,3.0,8.0,96,0.22,,,0.77,weatherlink.com 1.10,2013-01-29 21:21:00,
2013-01-29 15:36:00,53.1,52.0,29.47,NE,48,3.0,4.0,96,0.20,,,0.83,weatherlink.com 1.10,2013-01-29 21:36:00,
2013-01-29 15:51:00,53.1,52.0,29.48,NE,39,1.0,3.0,96,0.19,,,0.88,weatherlink.com 1.10,2013-01-29 21:51:00,
2013-01-29 16:06:00,53.0,52.0,29.50,NE,39,2.0,3.0,97,0.18,,,0.90,weatherlink.com 1.10,2013-01-29 22:06:00,
2013-01-29 16:21:00,53.0,52.0,29.48,NE,39,0.0,2.0,96,0.13,,,0.91,weatherlink.com 1.10,2013-01-29 22:21:00,
2013-01-29 16:36:00,52.9,52.0,29.50,NE,39,1.0,1.0,96,0.10,,,0.93,weatherlink.com 1.10,2013-01-29 22:36:00,
2013-01-29 16:51:00,52.9,52.0,29.49,ENE,59,3.0,4.0,97,0.09,,,0.97,weatherlink.com 1.10,2013-01-29 22:51:00,
2013-01-29 17:06:00,52.8,52.0,29.48,ENE,59,0.0,2.0,97,0.11,,,1.01,weatherlink.com 1.10,2013-01-29 23:06:00,
2013-01-29 17:21:00,52.5,52.0,29.43,NNW,343,3.0,7.0,97,0.11,,,1.02,weatherlink.com 1.10,2013-01-29 23:21:00,
2013-01-29 17:36:00,52.3,52.0,29.46,NNW,348,0.0,3.0,97,0.10,,,1.03,weatherlink.com 1.10,2013-01-29 23:36:00,
2013-01-29 17:51:00,52.5,52.0,29.50,SSE,155,5.0,8.0,97,0.07,,,1.04,weatherlink.com 1.10,2013-01-29 23:51:00,
2013-01-29 18:06:00,52.4,52.0,29.49,South,173,3.0,4.0,97,0.06,,,1.07,weatherlink.com 1.10,2013-01-30 00:06:00,
2013-01-29 18:21:00,52.3,52.0,29.49,South,173,0.0,2.0,97,0.08,,,1.10,weatherlink.com 1.10,2013-01-30 00:21:00,
2013-01-29 18:36:00,52.2,51.0,29.48,South,175,1.0,4.0,97,0.11,,,1.14,weatherlink.com 1.10,2013-01-30 00:36:00,
2013-01-29 18:51:00,52.2,51.0,29.49,South,178,1.0,5.0,97,0.15,,,1.19,weatherlink.com 1.10,2013-01-30 00:51:00,
2013-01-29 19:06:00,52.2,51.0,29.48,South,179,4.0,7.0,97,0.16,,,1.23,weatherlink.com 1.10,2013-01-30 01:06:00,
2013-01-29 19:21:00,52.2,51.0,29.49,SSE,149,3.0,8.0,97,0.19,,,1.29,weatherlink.com 1.10,2013-01-30 01:21:00,
2013-01-29 19:36:00,52.2,51.0,29.49,SSE,167,5.0,11.0,97,0.19,,,1.33,weatherlink.com 1.10,2013-01-30 01:36:00,
2013-01-29 19:51:00,52.1,52.0,29.50,SSE,158,6.0,10.0,98,0.17,,,1.37,weatherlink.com 1.10,2013-01-30 01:51:00,
2013-01-29 20:06:00,52.2,52.0,29.47,SE,142,9.0,10.0,98,0.17,,,1.40,weatherlink.com 1.10,2013-01-30 02:06:00,
2013-01-29 20:21:00,51.9,51.0,29.46,SE,132,1.0,11.0,97,0.13,,,1.42,weatherlink.com 1.10,2013-01-30 02:21:00,
2013-01-29 20:36:00,51.7,51.0,29.47,SSE,165,3.0,6.0,97,0.10,,,1.43,weatherlink.com 1.10,2013-01-30 02:36:00,
2013-01-29 20:51:00,51.7,51.0,29.48,South,178,6.0,9.0,98,0.07,,,1.44,weatherlink.com 1.10,2013-01-30 02:51:00,
2013-01-29 21:06:00,51.5,51.0,29.45,SSE,148,1.0,9.0,97,0.05,,,1.45,weatherlink.com 1.10,2013-01-30 03:06:00,
2013-01-29 21:21:00,51.2,50.0,29.44,South,177,2.0,6.0,97,0.04,,,1.46,weatherlink.com 1.10,2013-01-30 03:21:00,
2013-01-29 21:36:00,51.0,50.0,29.44,SSE,163,5.0,7.0,97,0.04,,,1.47,weatherlink.com 1.10,2013-01-30 03:36:00,
2013-01-29 21:51:00,50.7,50.0,29.41,SSE,151,0.0,4.0,97,0.03,,,1.47,weatherlink.com 1.10,2013-01-30 03:51:00,
2013-01-29 22:07:00,50.5,50.0,29.41,SSE,151,0.0,3.0,97,0.02,,,1.47,weatherlink.com 1.10,2013-01-30 04:07:00,
2013-01-29 22:22:00,50.4,50.0,29.40,SSE,151,2.0,5.0,97,0.01,,,1.47,weatherlink.com 1.10,2013-01-30 04:22:00,
2013-01-29 22:37:00,50.3,50.0,29.42,South,190,2.0,5.0,97,0.01,,,1.48,weatherlink.com 1.10,2013-01-30 04:37:00,
2013-01-29 22:52:00,50.0,49.0,29.41,SSW,194,2.0,5.0,97,0.01,,,1.48,weatherlink.com 1.10,2013-01-30 04:52:00,
2013-01-29 23:07:00,49.9,49.0,29.42,SSW,194,2.0,3.0,97,0.02,,,1.49,weatherlink.com 1.10,2013-01-30 05:07:00,
2013-01-29 23:22:00,49.9,49.0,29.43,South,183,0.0,5.0,97,0.03,,,1.50,weatherlink.com 1.10,2013-01-30 05:22:00,
2013-01-29 23:37:00,49.9,49.0,29.42,South,188,3.0,7.0,97,0.06,,,1.54,weatherlink.com 1.10,2013-01-30 05:37:00,
2013-01-29 23:52:00,49.7,49.0,29.43,SW,215,3.0,6.0,97,0.08,,,1.56,weatherlink.com 1.10,2013-01-30 05:52:00,